Time;durP1;ratioP1;P1;durP2;ratioP2;P2;SDS_P1;SDS_P2;PMS_P1;PMS_P2;Temp;Humidity;BMP_temperature;BMP_pressure;BME280_temperature;BME280_humidity;BME280_pressure;Samples;Min_cycle;Max_cycle;Signal;HPM_P1;HPM_P2
2024/03/22 00:02:25;;;;;;;4.72;3.50;;;;;;;;;;5034636;28;20041;-88
2024/03/22 00:04:52;;;;;;;4.85;3.55;;;;;;;;;;5030097;28;20053;-88
2024/03/22 00:07:19;;;;;;;4.55;3.20;;;;;;;;;;5026438;28;20405;-89
2024/03/22 00:09:46;;;;;;;4.70;3.35;;;;;;;;;;5029135;28;20056;-89
2024/03/22 00:12:14;;;;;;;5.10;3.53;;;;;;;;;;5029484;28;20049;-89
2024/03/22 00:14:42;;;;;;;6.45;4.22;;;;;;;;;;5028957;28;20083;-89
2024/03/22 00:17:08;;;;;;;7.50;4.28;;;;;;;;;;5030356;28;20048;-89
2024/03/22 00:19:36;;;;;;;6.05;4.05;;;;;;;;;;5025716;28;20396;-89
2024/03/22 00:22:03;;;;;;;8.27;4.40;;;;;;;;;;5028251;28;20053;-87
2024/03/22 00:24:30;;;;;;;7.00;4.75;;;;;;;;;;5028609;28;20054;-88
2024/03/22 00:26:57;;;;;;;7.93;4.88;;;;;;;;;;5029918;28;20042;-87
2024/03/22 00:29:26;;;;;;;10.20;5.53;;;;;;;;;;5030493;28;20053;-88
2024/03/22 00:31:52;;;;;;;7.10;4.65;;;;;;;;;;5027899;28;20057;-87
2024/03/22 00:34:20;;;;;;;6.43;4.32;;;;;;;;;;5027824;28;20506;-88
2024/03/22 00:36:46;;;;;;;9.38;4.07;;;;;;;;;;5027477;28;20446;-88
2024/03/22 00:39:14;;;;;;;7.07;3.92;;;;;;;;;;5028813;28;20064;-89
2024/03/22 00:41:40;;;;;;;5.78;4.25;;;;;;;;;;5028667;28;20414;-89
2024/03/22 00:44:08;;;;;;;7.20;4.13;;;;;;;;;;5028390;28;20052;-88
2024/03/22 00:46:36;;;;;;;5.95;4.15;;;;;;;;;;5031622;28;20049;-88
2024/03/22 00:49:04;;;;;;;6.28;4.63;;;;;;;;;;5028100;28;20072;-87
2024/03/22 00:51:30;;;;;;;7.80;4.80;;;;;;;;;;5028304;28;20107;-89
2024/03/22 00:53:57;;;;;;;5.53;4.25;;;;;;;;;;5032934;28;20053;-89
2024/03/22 00:56:24;;;;;;;6.78;3.97;;;;;;;;;;5030645;28;20036;-88
2024/03/22 00:58:51;;;;;;;6.10;3.90;;;;;;;;;;5028406;28;20118;-89
2024/03/22 01:01:18;;;;;;;7.10;4.20;;;;;;;;;;5027660;28;20497;-89
2024/03/22 01:03:47;;;;;;;6.15;3.80;;;;;;;;;;5026445;28;20048;-89
2024/03/22 01:06:13;;;;;;;5.47;3.63;;;;;;;;;;5026209;28;20065;-89
2024/03/22 01:08:41;;;;;;;4.82;3.42;;;;;;;;;;5030152;28;20415;-89
2024/03/22 01:11:07;;;;;;;3.90;3.55;;;;;;;;;;5027880;28;20057;-89
2024/03/22 01:13:35;;;;;;;5.60;3.53;;;;;;;;;;5026368;28;20056;-88
2024/03/22 01:16:01;;;;;;;4.63;3.30;;;;;;;;;;5026841;28;20069;-89
2024/03/22 01:18:29;;;;;;;5.85;3.60;;;;;;;;;;5025546;28;20483;-89
2024/03/22 01:20:57;;;;;;;5.97;3.88;;;;;;;;;;5028149;28;20049;-88
2024/03/22 01:23:27;;;;;;;6.15;4.03;;;;;;;;;;5034354;28;20058;-88
2024/03/22 01:25:53;;;;;;;7.60;4.32;;;;;;;;;;5026951;28;20465;-88
2024/03/22 01:28:20;;;;;;;6.15;4.32;;;;;;;;;;5026768;28;20098;-88
2024/03/22 01:30:47;;;;;;;4.63;3.75;;;;;;;;;;5027857;28;20050;-90
2024/03/22 01:33:14;;;;;;;6.18;3.67;;;;;;;;;;5029168;28;20056;-88
2024/03/22 01:35:41;;;;;;;4.82;3.60;;;;;;;;;;5027682;28;20053;-88
2024/03/22 01:38:10;;;;;;;5.78;4.28;;;;;;;;;;5026966;28;20100;-88
2024/03/22 01:40:36;;;;;;;5.10;3.22;;;;;;;;;;5026456;28;20052;-88
2024/03/22 01:43:04;;;;;;;7.03;5.03;;;;;;;;;;5028046;28;20054;-88
2024/03/22 01:45:32;;;;;;;5.85;4.13;;;;;;;;;;5029306;28;20053;-89
2024/03/22 01:48:00;;;;;;;6.65;4.28;;;;;;;;;;5033808;28;20042;-88
2024/03/22 01:50:27;;;;;;;8.05;5.22;;;;;;;;;;5024703;28;20107;-89
2024/03/22 01:52:54;;;;;;;7.97;5.38;;;;;;;;;;5033493;28;20053;-89
2024/03/22 01:55:22;;;;;;;6.93;4.30;;;;;;;;;;5027379;28;20418;-88
2024/03/22 01:57:50;;;;;;;8.65;4.75;;;;;;;;;;5026540;28;20042;-89
2024/03/22 02:00:17;;;;;;;7.82;4.50;;;;;;;;;;5026391;28;20064;-89
2024/03/22 02:02:44;;;;;;;6.80;4.65;;;;;;;;;;5032596;28;20053;-89
2024/03/22 02:05:15;;;;;;;6.28;4.32;;;;;;;;;;5020607;28;20076;-89
2024/03/22 02:07:43;;;;;;;6.03;4.05;;;;;;;;;;5014009;28;20053;-88
2024/03/22 02:10:10;;;;;;;7.32;4.95;;;;;;;;;;5026894;28;20445;-89
2024/03/22 02:12:40;;;;;;;7.18;4.57;;;;;;;;;;5026990;28;20111;-88
2024/03/22 02:15:06;;;;;;;8.80;4.60;;;;;;;;;;5029809;28;20053;-88
2024/03/22 02:17:34;;;;;;;6.50;4.22;;;;;;;;;;5034800;28;20052;-88
2024/03/22 02:20:01;;;;;;;7.07;4.13;;;;;;;;;;5030391;28;20061;-88
2024/03/22 02:22:28;;;;;;;8.93;3.85;;;;;;;;;;5040547;28;20084;-87
2024/03/22 02:24:56;;;;;;;4.75;3.65;;;;;;;;;;5030767;28;20049;-89
2024/03/22 02:27:24;;;;;;;4.90;3.70;;;;;;;;;;5030760;28;20083;-89
2024/03/22 02:29:50;;;;;;;4.18;3.15;;;;;;;;;;5030663;28;20083;-87
2024/03/22 02:32:17;;;;;;;4.95;3.47;;;;;;;;;;5029493;28;20041;-89
2024/03/22 02:34:44;;;;;;;4.18;3.20;;;;;;;;;;5029088;28;20486;-88
2024/03/22 02:37:11;;;;;;;5.00;3.38;;;;;;;;;;5032020;28;20041;-89
2024/03/22 02:39:38;;;;;;;5.40;3.63;;;;;;;;;;5031289;28;20049;-89
2024/03/22 02:42:07;;;;;;;7.15;4.38;;;;;;;;;;5030493;28;20049;-89
2024/03/22 02:44:33;;;;;;;7.32;3.92;;;;;;;;;;5034211;28;20044;-88
2024/03/22 02:47:01;;;;;;;6.03;3.45;;;;;;;;;;5035164;28;20414;-88
2024/03/22 02:49:27;;;;;;;5.13;3.63;;;;;;;;;;5030482;28;20053;-88
2024/03/22 02:51:54;;;;;;;4.63;3.20;;;;;;;;;;5030437;28;20054;-88
2024/03/22 02:54:21;;;;;;;3.25;2.80;;;;;;;;;;5031119;28;20053;-88
2024/03/22 02:56:48;;;;;;;4.50;3.42;;;;;;;;;;5030453;28;20574;-88
2024/03/22 02:59:16;;;;;;;3.75;3.20;;;;;;;;;;5029941;28;20486;-89
2024/03/22 03:01:43;;;;;;;4.53;3.28;;;;;;;;;;5029711;28;20060;-88
2024/03/22 03:04:10;;;;;;;4.88;3.35;;;;;;;;;;5029850;28;20054;-89
2024/03/22 03:06:37;;;;;;;4.63;3.42;;;;;;;;;;5029242;28;20120;-88
2024/03/22 03:09:05;;;;;;;4.60;3.03;;;;;;;;;;5030507;28;20068;-88
2024/03/22 03:11:32;;;;;;;3.70;2.70;;;;;;;;;;5030102;28;20049;-88
2024/03/22 03:13:59;;;;;;;4.63;3.00;;;;;;;;;;5031100;28;20060;-88
2024/03/22 03:16:27;;;;;;;3.20;2.45;;;;;;;;;;5029429;28;20045;-88
2024/03/22 03:18:54;;;;;;;3.25;2.65;;;;;;;;;;5034242;28;20445;-88
2024/03/22 03:21:21;;;;;;;3.05;2.38;;;;;;;;;;5029167;28;20057;-88
2024/03/22 03:23:48;;;;;;;4.05;2.95;;;;;;;;;;5028831;28;20065;-88
2024/03/22 03:26:15;;;;;;;3.92;3.20;;;;;;;;;;5029813;28;20050;-88
2024/03/22 03:28:41;;;;;;;4.85;3.08;;;;;;;;;;5030949;28;20056;-87
2024/03/22 03:31:09;;;;;;;3.50;2.92;;;;;;;;;;5030386;28;20434;-88
2024/03/22 03:33:37;;;;;;;3.83;2.80;;;;;;;;;;5029374;28;20041;-87
2024/03/22 03:36:04;;;;;;;3.25;2.50;;;;;;;;;;5027604;28;20123;-87
2024/03/22 03:38:31;;;;;;;2.65;2.45;;;;;;;;;;5029313;28;20053;-87
2024/03/22 03:40:58;;;;;;;3.75;2.78;;;;;;;;;;5030004;28;20142;-88
2024/03/22 03:43:25;;;;;;;4.47;2.85;;;;;;;;;;5030275;28;20049;-88
2024/03/22 03:45:54;;;;;;;3.75;2.78;;;;;;;;;;5027670;28;20061;-88
2024/03/22 03:48:20;;;;;;;5.57;2.65;;;;;;;;;;5030146;28;20046;-88
2024/03/22 03:50:54;;;;;;;4.07;3.10;;;;;;;;;;5029518;28;20049;-88
2024/03/22 03:53:21;;;;;;;4.38;2.72;;;;;;;;;;5036426;28;20494;-88
2024/03/22 03:55:48;;;;;;;3.88;3.00;;;;;;;;;;5030614;28;20084;-89
2024/03/22 03:58:16;;;;;;;5.70;2.83;;;;;;;;;;5028795;28;20045;-89
2024/03/22 04:00:43;;;;;;;3.78;2.90;;;;;;;;;;5029611;28;20061;-89
2024/03/22 04:03:09;;;;;;;4.32;3.00;;;;;;;;;;5038318;28;20135;-89
2024/03/22 04:05:37;;;;;;;4.05;2.92;;;;;;;;;;5028311;28;20061;-89
2024/03/22 04:08:05;;;;;;;4.45;2.83;;;;;;;;;;5027181;28;20053;-89
2024/03/22 04:10:32;;;;;;;6.68;4.00;;;;;;;;;;5029603;28;20064;-89
2024/03/22 04:12:59;;;;;;;6.10;3.80;;;;;;;;;;5029304;28;20057;-89
2024/03/22 04:15:26;;;;;;;5.22;4.10;;;;;;;;;;5029111;28;20049;-90
2024/03/22 04:17:53;;;;;;;6.05;4.25;;;;;;;;;;5028200;28;20046;-89
2024/03/22 04:20:20;;;;;;;6.38;4.10;;;;;;;;;;5028874;28;20123;-89
2024/03/22 04:22:49;;;;;;;9.13;4.53;;;;;;;;;;5028660;28;20454;-89
2024/03/22 04:25:18;;;;;;;7.18;4.35;;;;;;;;;;5029966;28;20065;-89
2024/03/22 04:27:44;;;;;;;5.93;4.28;;;;;;;;;;5034098;28;20490;-88
2024/03/22 04:30:12;;;;;;;8.63;4.70;;;;;;;;;;5021781;28;20065;-90
2024/03/22 04:32:39;;;;;;;7.45;4.38;;;;;;;;;;5028217;28;20399;-89
2024/03/22 04:35:06;;;;;;;7.47;4.35;;;;;;;;;;5028194;28;20304;-89
2024/03/22 04:37:34;;;;;;;7.32;4.43;;;;;;;;;;5026898;28;20057;-89
2024/03/22 04:40:02;;;;;;;5.90;3.88;;;;;;;;;;5029968;28;20053;-89
2024/03/22 04:42:31;;;;;;;7.25;4.55;;;;;;;;;;5026318;28;20061;-89
2024/03/22 04:44:59;;;;;;;5.95;3.85;;;;;;;;;;5027428;28;20442;-90
2024/03/22 04:47:25;;;;;;;6.55;3.92;;;;;;;;;;5028134;28;20050;-88
2024/03/22 04:49:52;;;;;;;7.18;4.10;;;;;;;;;;5027904;28;20056;-89
2024/03/22 04:52:19;;;;;;;7.30;4.35;;;;;;;;;;5028022;28;20045;-89
2024/03/22 04:54:47;;;;;;;7.07;4.63;;;;;;;;;;5027391;28;20072;-89
2024/03/22 04:57:13;;;;;;;9.65;4.22;;;;;;;;;;5027678;28;20057;-89
2024/03/22 04:59:42;;;;;;;7.82;4.20;;;;;;;;;;5034534;28;20045;-89
2024/03/22 05:02:09;;;;;;;8.20;4.75;;;;;;;;;;5027351;28;20053;-89
2024/03/22 05:04:37;;;;;;;10.95;5.35;;;;;;;;;;5027339;28;20041;-89
2024/03/22 05:07:04;;;;;;;8.35;5.00;;;;;;;;;;5026195;28;20139;-88
2024/03/22 05:09:32;;;;;;;7.00;4.90;;;;;;;;;;5021214;28;20506;-88
2024/03/22 05:11:59;;;;;;;9.02;5.43;;;;;;;;;;5029781;28;20041;-89
2024/03/22 05:14:25;;;;;;;8.38;4.97;;;;;;;;;;5036084;28;20561;-89
2024/03/22 05:16:54;;;;;;;9.45;4.95;;;;;;;;;;5031423;28;20512;-88
2024/03/22 05:19:20;;;;;;;9.30;5.13;;;;;;;;;;5025125;28;20057;-91
2024/03/22 05:21:48;;;;;;;8.65;5.22;;;;;;;;;;5028040;28;20061;-89
2024/03/22 05:24:14;;;;;;;8.88;4.75;;;;;;;;;;5026531;28;20046;-89
2024/03/22 05:26:42;;;;;;;9.57;4.63;;;;;;;;;;5029582;28;20037;-89
2024/03/22 05:29:08;;;;;;;11.88;4.68;;;;;;;;;;5033356;28;20111;-89
2024/03/22 05:31:47;;;;;;;6.85;4.07;;;;;;;;;;5030065;28;20060;-89
2024/03/22 05:34:14;;;;;;;6.32;4.35;;;;;;;;;;5020149;28;20072;-88
2024/03/22 05:36:42;;;;;;;7.03;4.60;;;;;;;;;;5026221;28;20464;-90
2024/03/22 05:39:10;;;;;;;7.57;4.80;;;;;;;;;;5026385;28;20119;-92
2024/03/22 05:41:37;;;;;;;5.35;4.03;;;;;;;;;;5026656;28;20049;-89
2024/03/22 05:44:04;;;;;;;7.72;5.10;;;;;;;;;;5028026;28;20449;-92
2024/03/22 05:46:31;;;;;;;8.68;5.03;;;;;;;;;;5027435;28;20065;-90
2024/03/22 05:48:58;;;;;;;10.25;4.43;;;;;;;;;;5025018;28;20455;-91
2024/03/22 05:51:27;;;;;;;8.65;4.95;;;;;;;;;;5029721;28;20790;-90
2024/03/22 05:53:53;;;;;;;10.00;4.78;;;;;;;;;;5042184;28;20061;-91
2024/03/22 05:56:21;;;;;;;7.40;4.78;;;;;;;;;;5024005;28;20056;-89
2024/03/22 05:58:47;;;;;;;9.00;5.45;;;;;;;;;;5031176;28;20064;-89
2024/03/22 06:01:15;;;;;;;7.63;5.07;;;;;;;;;;5031485;28;20498;-90
2024/03/22 06:03:41;;;;;;;8.32;4.93;;;;;;;;;;5027658;28;20057;-88
2024/03/22 06:06:08;;;;;;;9.63;4.88;;;;;;;;;;5028193;28;20033;-89
2024/03/22 06:08:39;;;;;;;8.50;4.63;;;;;;;;;;5029809;28;20099;-92
2024/03/22 06:11:08;;;;;;;8.82;4.90;;;;;;;;;;5027758;28;20048;-90
2024/03/22 06:13:36;;;;;;;9.25;5.32;;;;;;;;;;5027677;28;20061;-88
2024/03/22 06:16:04;;;;;;;6.80;4.15;;;;;;;;;;5026841;28;20064;-88
2024/03/22 06:18:30;;;;;;;10.02;5.35;;;;;;;;;;5030026;28;20470;-91
2024/03/22 06:20:58;;;;;;;10.20;5.13;;;;;;;;;;5028746;28;20053;-90
2024/03/22 06:23:25;;;;;;;8.38;4.70;;;;;;;;;;5039987;28;20061;-90
2024/03/22 06:25:54;;;;;;;8.48;4.95;;;;;;;;;;5030607;28;20453;-90
2024/03/22 06:28:21;;;;;;;8.95;4.82;;;;;;;;;;5037265;28;20037;-90
2024/03/22 06:30:48;;;;;;;10.95;4.72;;;;;;;;;;5029832;28;20080;-91
2024/03/22 06:33:15;;;;;;;7.85;4.80;;;;;;;;;;5030051;28;20049;-91
2024/03/22 06:35:41;;;;;;;13.23;5.22;;;;;;;;;;5036809;28;20048;-92
2024/03/22 06:38:09;;;;;;;8.25;4.95;;;;;;;;;;5037042;28;20045;-91
2024/03/22 06:40:35;;;;;;;8.35;4.63;;;;;;;;;;5029565;28;20053;-91
2024/03/22 06:43:04;;;;;;;7.88;4.88;;;;;;;;;;5027716;28;20046;-91
2024/03/22 06:45:31;;;;;;;9.70;5.10;;;;;;;;;;5029083;28;20123;-91
2024/03/22 06:47:58;;;;;;;10.15;5.45;;;;;;;;;;5033689;28;20045;-91
2024/03/22 06:50:25;;;;;;;8.25;5.28;;;;;;;;;;5026855;28;20577;-93
2024/03/22 06:52:55;;;;;;;10.43;5.63;;;;;;;;;;5029910;28;20076;-91
2024/03/22 06:55:22;;;;;;;9.30;5.88;;;;;;;;;;5027916;28;20128;-92
2024/03/22 06:57:51;;;;;;;10.45;5.18;;;;;;;;;;5028151;28;20049;-93
2024/03/22 07:00:19;;;;;;;11.27;5.70;;;;;;;;;;5027712;28;20045;-93
2024/03/22 07:02:46;;;;;;;10.82;6.95;;;;;;;;;;5028893;28;20060;-92
2024/03/22 07:05:13;;;;;;;9.70;5.82;;;;;;;;;;5031278;28;20050;-90
2024/03/22 07:07:40;;;;;;;11.85;6.43;;;;;;;;;;5027100;28;20042;-91
2024/03/22 07:10:07;;;;;;;10.02;5.32;;;;;;;;;;5025782;28;20054;-91
2024/03/22 07:12:34;;;;;;;13.32;6.13;;;;;;;;;;5031608;28;20064;-93
2024/03/22 07:15:02;;;;;;;11.50;5.85;;;;;;;;;;5029565;28;20057;-92
2024/03/22 07:17:31;;;;;;;10.85;5.40;;;;;;;;;;5027156;28;20100;-92
2024/03/22 07:19:58;;;;;;;10.32;6.63;;;;;;;;;;5028245;28;20513;-94
2024/03/22 07:22:25;;;;;;;12.68;7.20;;;;;;;;;;5032680;28;20053;-95
2024/03/22 07:24:51;;;;;;;9.48;6.05;;;;;;;;;;5031842;28;20164;-96
2024/03/22 07:27:19;;;;;;;10.32;5.85;;;;;;;;;;5033614;28;20056;-94
2024/03/22 07:29:46;;;;;;;12.20;6.55;;;;;;;;;;5033404;28;20057;-95
2024/03/22 07:32:13;;;;;;;10.07;6.72;;;;;;;;;;5030653;28;20388;-95
2024/03/22 07:34:41;;;;;;;12.57;7.07;;;;;;;;;;5033687;28;20066;-94
2024/03/22 07:37:09;;;;;;;10.13;6.57;;;;;;;;;;5031780;28;20498;-94
2024/03/22 07:39:35;;;;;;;10.88;6.25;;;;;;;;;;5030653;28;20120;-95
2024/03/22 07:42:03;;;;;;;10.55;6.22;;;;;;;;;;5031412;28;20135;-94
2024/03/22 07:44:29;;;;;;;13.10;6.28;;;;;;;;;;5025233;28;20052;-93
2024/03/22 07:46:57;;;;;;;9.40;5.53;;;;;;;;;;5030422;28;20045;-94
2024/03/22 07:49:23;;;;;;;10.80;6.82;;;;;;;;;;5032541;28;20430;-94
2024/03/22 07:51:53;;;;;;;10.98;6.53;;;;;;;;;;5030961;28;20568;-92
2024/03/22 07:54:20;;;;;;;12.48;6.75;;;;;;;;;;5038623;28;20115;-93
2024/03/22 07:56:48;;;;;;;13.93;6.68;;;;;;;;;;5030227;28;20057;-93
2024/03/22 07:59:14;;;;;;;9.65;5.82;;;;;;;;;;5029502;28;20056;-93
2024/03/22 08:01:41;;;;;;;10.88;6.45;;;;;;;;;;5035006;28;20046;-91
2024/03/22 08:04:08;;;;;;;9.85;6.38;;;;;;;;;;5033850;28;20057;-94
2024/03/22 08:06:35;;;;;;;8.45;5.68;;;;;;;;;;5029222;28;20045;-92
2024/03/22 08:09:03;;;;;;;9.98;5.95;;;;;;;;;;5029508;28;20057;-92
2024/03/22 08:11:31;;;;;;;9.02;5.57;;;;;;;;;;5030393;28;20060;-90
2024/03/22 08:14:02;;;;;;;10.93;5.90;;;;;;;;;;5027498;28;20072;-89
2024/03/22 08:16:29;;;;;;;12.18;6.50;;;;;;;;;;5044350;28;20049;-91
2024/03/22 08:18:56;;;;;;;9.60;5.72;;;;;;;;;;5029413;28;20046;-89
2024/03/22 08:21:24;;;;;;;8.07;5.25;;;;;;;;;;5029567;28;20060;-91
2024/03/22 08:23:50;;;;;;;9.48;5.50;;;;;;;;;;5028091;28;20069;-89
2024/03/22 08:26:19;;;;;;;8.48;5.40;;;;;;;;;;5027786;28;20380;-89
2024/03/22 08:28:46;;;;;;;7.05;4.95;;;;;;;;;;5033625;28;20041;-90
2024/03/22 08:31:14;;;;;;;6.85;4.57;;;;;;;;;;5026293;28;20064;-89
2024/03/22 08:33:41;;;;;;;7.40;4.65;;;;;;;;;;5027982;28;20049;-90
2024/03/22 08:36:09;;;;;;;6.95;4.15;;;;;;;;;;5028540;28;20057;-89
2024/03/22 08:38:35;;;;;;;5.50;4.05;;;;;;;;;;5032720;28;20414;-88
2024/03/22 08:41:03;;;;;;;5.82;4.03;;;;;;;;;;5028106;28;20045;-89
2024/03/22 08:43:31;;;;;;;7.93;4.38;;;;;;;;;;5028677;28;20119;-88
2024/03/22 08:45:58;;;;;;;8.25;4.70;;;;;;;;;;5027716;28;20049;-85
2024/03/22 08:48:25;;;;;;;4.93;3.97;;;;;;;;;;5032059;28;20556;-88
2024/03/22 08:50:52;;;;;;;6.55;4.53;;;;;;;;;;5028241;28;20050;-89
2024/03/22 08:53:19;;;;;;;5.13;3.92;;;;;;;;;;5030798;28;20058;-89
2024/03/22 08:55:47;;;;;;;5.43;3.90;;;;;;;;;;5029085;28;20060;-89
2024/03/22 08:58:14;;;;;;;7.18;4.70;;;;;;;;;;5035104;28;20038;-89
2024/03/22 09:00:43;;;;;;;6.43;4.10;;;;;;;;;;5034089;28;20045;-93
2024/03/22 09:03:10;;;;;;;6.43;4.25;;;;;;;;;;5018065;28;20046;-90
2024/03/22 09:05:38;;;;;;;7.65;4.30;;;;;;;;;;5025622;28;20049;-90
2024/03/22 09:08:05;;;;;;;11.50;4.78;;;;;;;;;;5022217;28;20044;-88
2024/03/22 09:10:32;;;;;;;6.65;4.60;;;;;;;;;;5021047;28;20057;-87
2024/03/22 09:12:59;;;;;;;8.00;4.45;;;;;;;;;;5021654;28;20489;-88
2024/03/22 09:15:26;;;;;;;6.60;4.95;;;;;;;;;;5027053;28;20053;-89
2024/03/22 09:17:54;;;;;;;6.05;3.90;;;;;;;;;;5027968;28;20053;-90
2024/03/22 09:20:23;;;;;;;6.20;4.40;;;;;;;;;;5025857;28;20310;-88
2024/03/22 09:22:49;;;;;;;8.18;4.45;;;;;;;;;;5031036;28;20103;-91
2024/03/22 09:25:18;;;;;;;5.13;4.00;;;;;;;;;;5028795;28;20053;-90
2024/03/22 09:27:44;;;;;;;6.45;4.45;;;;;;;;;;5033354;28;20053;-91
2024/03/22 09:30:12;;;;;;;5.63;4.30;;;;;;;;;;5028944;28;20057;-90
2024/03/22 09:32:40;;;;;;;5.78;4.00;;;;;;;;;;5028302;28;20054;-90
2024/03/22 09:35:09;;;;;;;6.93;4.03;;;;;;;;;;5028684;28;20053;-91
2024/03/22 09:37:36;;;;;;;5.40;3.90;;;;;;;;;;5027561;28;20042;-90
2024/03/22 09:40:07;;;;;;;5.65;3.97;;;;;;;;;;5031224;28;20052;-93
2024/03/22 09:42:34;;;;;;;5.43;3.47;;;;;;;;;;5030834;28;20072;-91
2024/03/22 09:45:02;;;;;;;3.85;3.05;;;;;;;;;;5030003;28;20057;-92
2024/03/22 09:47:29;;;;;;;4.32;3.10;;;;;;;;;;5032188;28;20415;-92
2024/03/22 09:49:57;;;;;;;6.10;3.35;;;;;;;;;;5028972;28;20049;-92
2024/03/22 09:52:25;;;;;;;5.80;3.38;;;;;;;;;;5028420;28;20057;-93
2024/03/22 09:54:52;;;;;;;3.78;2.97;;;;;;;;;;5039685;28;20045;-93
2024/03/22 09:57:18;;;;;;;3.70;2.95;;;;;;;;;;5027472;28;20398;-88
2024/03/22 09:59:46;;;;;;;4.60;3.42;;;;;;;;;;5035436;28;20123;-89
2024/03/22 10:02:13;;;;;;;4.75;3.10;;;;;;;;;;5028731;28;20052;-90
2024/03/22 10:04:41;;;;;;;4.30;3.03;;;;;;;;;;5027262;28;20487;-91
2024/03/22 10:07:09;;;;;;;4.45;3.33;;;;;;;;;;5027542;28;20053;-92
2024/03/22 10:09:38;;;;;;;6.00;3.42;;;;;;;;;;5034112;28;20413;-89
2024/03/22 10:12:05;;;;;;;6.63;3.42;;;;;;;;;;5028721;28;20038;-94
2024/03/22 10:14:33;;;;;;;4.07;2.95;;;;;;;;;;5037090;28;20060;-91
2024/03/22 10:17:00;;;;;;;5.45;3.47;;;;;;;;;;5028860;28;20068;-92
2024/03/22 10:19:27;;;;;;;5.22;2.80;;;;;;;;;;5032215;28;20410;-91
2024/03/22 10:22:00;;;;;;;5.38;3.47;;;;;;;;;;5029426;28;20049;-89
2024/03/22 10:24:30;;;;;;;5.55;3.20;;;;;;;;;;5033420;28;20041;-90
2024/03/22 10:26:58;;;;;;;4.47;3.05;;;;;;;;;;5034041;28;20057;-90
2024/03/22 10:29:26;;;;;;;7.00;2.90;;;;;;;;;;5033360;28;20053;-93
2024/03/22 10:31:53;;;;;;;6.82;3.30;;;;;;;;;;5029973;28;20057;-94
2024/03/22 10:34:22;;;;;;;6.03;3.42;;;;;;;;;;5030796;28;20053;-89
2024/03/22 10:36:49;;;;;;;3.85;2.90;;;;;;;;;;5036412;28;20054;-91
2024/03/22 10:39:18;;;;;;;4.43;2.67;;;;;;;;;;5039238;28;20191;-90
2024/03/22 10:41:45;;;;;;;4.20;3.05;;;;;;;;;;5032365;28;20060;-93
2024/03/22 10:44:14;;;;;;;4.97;3.15;;;;;;;;;;5034525;28;20490;-92
2024/03/22 10:46:44;;;;;;;3.88;2.78;;;;;;;;;;5030721;28;20033;-94
2024/03/22 10:49:16;;;;;;;4.57;3.50;;;;;;;;;;5027460;28;20554;-89
2024/03/22 10:51:44;;;;;;;4.13;2.92;;;;;;;;;;5029452;28;20119;-93
2024/03/22 10:54:12;;;;;;;4.10;2.70;;;;;;;;;;5034940;28;20111;-90
2024/03/22 10:56:40;;;;;;;3.15;2.72;;;;;;;;;;5028642;28;20056;-91
2024/03/22 10:59:08;;;;;;;3.42;2.80;;;;;;;;;;5033943;28;20053;-91
2024/03/22 11:01:37;;;;;;;3.70;2.60;;;;;;;;;;5032369;28;20037;-90
2024/03/22 11:04:06;;;;;;;4.55;2.45;;;;;;;;;;5032363;28;20091;-93
2024/03/22 11:06:32;;;;;;;5.15;2.70;;;;;;;;;;5030893;28;20042;-94
2024/03/22 11:09:03;;;;;;;4.22;2.90;;;;;;;;;;5031771;28;20452;-93
2024/03/22 11:11:31;;;;;;;4.13;2.90;;;;;;;;;;5027682;28;20107;-93
2024/03/22 11:13:58;;;;;;;4.70;3.03;;;;;;;;;;5031327;28;20449;-90
2024/03/22 11:16:25;;;;;;;4.00;2.78;;;;;;;;;;5030617;28;20041;-91
2024/03/22 11:18:54;;;;;;;5.57;2.58;;;;;;;;;;5032483;28;20139;-89
2024/03/22 11:21:20;;;;;;;5.45;2.70;;;;;;;;;;5033145;28;20058;-94
2024/03/22 11:23:48;;;;;;;4.65;2.88;;;;;;;;;;5030895;28;20411;-89
2024/03/22 11:26:14;;;;;;;3.47;2.67;;;;;;;;;;5029082;28;20041;-94
2024/03/22 11:28:42;;;;;;;4.60;2.85;;;;;;;;;;5030655;28;20045;-90
2024/03/22 11:31:09;;;;;;;4.55;2.90;;;;;;;;;;5030027;28;20053;-94
2024/03/22 11:33:36;;;;;;;4.78;3.08;;;;;;;;;;5030600;28;20403;-88
2024/03/22 11:36:05;;;;;;;3.30;2.60;;;;;;;;;;5029935;28;20057;-91
2024/03/22 11:38:32;;;;;;;3.97;2.65;;;;;;;;;;5032103;28;20045;-92
2024/03/22 11:41:01;;;;;;;3.53;2.70;;;;;;;;;;5030883;28;20103;-90
2024/03/22 11:43:28;;;;;;;5.82;3.03;;;;;;;;;;5042187;28;20383;-89
2024/03/22 11:45:56;;;;;;;3.92;2.83;;;;;;;;;;5028842;28;20053;-90
2024/03/22 11:48:23;;;;;;;5.50;3.03;;;;;;;;;;5030264;28;20057;-92
2024/03/22 11:50:51;;;;;;;3.10;2.75;;;;;;;;;;5038616;28;20450;-91
2024/03/22 11:53:19;;;;;;;4.97;2.78;;;;;;;;;;5032850;28;20048;-91
2024/03/22 11:55:47;;;;;;;5.13;2.80;;;;;;;;;;5028443;28;20056;-90
2024/03/22 11:58:13;;;;;;;4.70;3.50;;;;;;;;;;5032033;28;20049;-92
2024/03/22 12:00:41;;;;;;;5.28;3.30;;;;;;;;;;5030087;28;20053;-90
2024/03/22 12:03:07;;;;;;;4.50;2.80;;;;;;;;;;5029616;28;20050;-92
2024/03/22 12:05:35;;;;;;;5.00;2.92;;;;;;;;;;5027727;28;20061;-90
2024/03/22 12:08:02;;;;;;;4.53;3.60;;;;;;;;;;5029833;28;20056;-92
2024/03/22 12:10:31;;;;;;;3.53;2.33;;;;;;;;;;5030993;28;20053;-91
2024/03/22 12:12:57;;;;;;;2.80;2.17;;;;;;;;;;5030259;28;20478;-91
2024/03/22 12:15:24;;;;;;;3.72;2.45;;;;;;;;;;5029852;28;20449;-90
2024/03/22 12:17:51;;;;;;;4.18;2.50;;;;;;;;;;5030947;28;20357;-90
2024/03/22 12:20:18;;;;;;;3.38;2.42;;;;;;;;;;5030674;28;20048;-92
2024/03/22 12:22:45;;;;;;;4.60;2.60;;;;;;;;;;5029391;28;20107;-93
2024/03/22 12:25:12;;;;;;;2.80;2.25;;;;;;;;;;5029824;28;20053;-91
2024/03/22 12:27:40;;;;;;;5.90;2.50;;;;;;;;;;5027932;28;20048;-94
2024/03/22 12:30:09;;;;;;;3.67;2.70;;;;;;;;;;5030641;28;20053;-93
2024/03/22 12:32:35;;;;;;;3.97;2.50;;;;;;;;;;5027965;28;20470;-89
2024/03/22 12:35:03;;;;;;;2.78;2.15;;;;;;;;;;5030267;28;20068;-91
2024/03/22 12:37:29;;;;;;;3.03;2.28;;;;;;;;;;5029965;28;20034;-93
2024/03/22 12:39:56;;;;;;;3.83;2.35;;;;;;;;;;5028478;28;20079;-90
2024/03/22 12:42:23;;;;;;;2.60;2.15;;;;;;;;;;5033637;28;20608;-90
2024/03/22 12:44:52;;;;;;;2.92;2.30;;;;;;;;;;5033875;28;20054;-90
2024/03/22 12:47:18;;;;;;;3.97;2.42;;;;;;;;;;5021120;28;20053;-89
2024/03/22 12:49:46;;;;;;;3.35;1.98;;;;;;;;;;5028305;28;20072;-92
2024/03/22 12:52:13;;;;;;;2.72;1.95;;;;;;;;;;5034227;28;20091;-96
2024/03/22 12:54:40;;;;;;;3.78;2.25;;;;;;;;;;5030552;28;20053;-95
2024/03/22 12:57:07;;;;;;;4.45;3.03;;;;;;;;;;5028836;28;20049;-90
2024/03/22 12:59:35;;;;;;;3.20;2.30;;;;;;;;;;5029021;28;20054;-93
2024/03/22 13:02:02;;;;;;;2.40;2.10;;;;;;;;;;5035347;28;20499;-91
2024/03/22 13:04:30;;;;;;;3.25;2.30;;;;;;;;;;5028866;28;20045;-94
2024/03/22 13:06:56;;;;;;;4.22;2.50;;;;;;;;;;5030830;28;20037;-92
2024/03/22 13:09:24;;;;;;;4.13;2.28;;;;;;;;;;5025054;28;20049;-94
2024/03/22 13:11:50;;;;;;;4.65;2.20;;;;;;;;;;5028589;28;20064;-92
2024/03/22 13:14:18;;;;;;;3.70;2.45;;;;;;;;;;5027870;28;20068;-92
2024/03/22 13:16:46;;;;;;;2.22;1.83;;;;;;;;;;5028782;28;20037;-93
2024/03/22 13:19:15;;;;;;;3.28;2.05;;;;;;;;;;5030864;28;20455;-96
2024/03/22 13:21:44;;;;;;;2.40;1.73;;;;;;;;;;5030026;28;20053;-96
2024/03/22 13:24:13;;;;;;;4.45;2.42;;;;;;;;;;5031435;28;20068;-94
2024/03/22 13:26:39;;;;;;;4.13;2.10;;;;;;;;;;5029175;28;20037;-93
2024/03/22 13:29:07;;;;;;;2.38;1.83;;;;;;;;;;5031510;28;20053;-92
2024/03/22 13:31:33;;;;;;;2.67;1.60;;;;;;;;;;5027049;28;20395;-94
2024/03/22 13:34:01;;;;;;;3.08;1.98;;;;;;;;;;5028921;28;20049;-90
2024/03/22 13:36:32;;;;;;;3.35;2.20;;;;;;;;;;5026961;28;20410;-92
2024/03/22 13:39:00;;;;;;;2.55;1.90;;;;;;;;;;5030266;28;20053;-93
2024/03/22 13:41:26;;;;;;;3.88;1.88;;;;;;;;;;5029339;28;20057;-93
2024/03/22 13:43:54;;;;;;;1.95;1.55;;;;;;;;;;5035791;28;20042;-95
2024/03/22 13:46:20;;;;;;;5.30;1.33;;;;;;;;;;5027421;28;20038;-92
2024/03/22 13:48:47;;;;;;;5.28;1.33;;;;;;;;;;5038056;28;20060;-91
2024/03/22 13:51:14;;;;;;;2.53;1.30;;;;;;;;;;5025818;28;20049;-92
2024/03/22 13:53:43;;;;;;;2.60;1.80;;;;;;;;;;5025503;28;20341;-94
2024/03/22 13:56:10;;;;;;;1.83;1.50;;;;;;;;;;5026142;28;20048;-90
2024/03/22 13:58:38;;;;;;;2.78;1.40;;;;;;;;;;5028173;28;20057;-92
2024/03/22 14:01:05;;;;;;;2.20;1.70;;;;;;;;;;5025433;28;20103;-92
2024/03/22 14:03:32;;;;;;;4.47;1.58;;;;;;;;;;5025531;28;20045;-92
2024/03/22 14:05:58;;;;;;;4.85;1.90;;;;;;;;;;5026290;28;20053;-89
2024/03/22 14:08:26;;;;;;;2.88;1.85;;;;;;;;;;5030121;28;20053;-91
2024/03/22 14:10:54;;;;;;;2.10;1.55;;;;;;;;;;5028643;28;20057;-93
2024/03/22 14:13:21;;;;;;;1.60;1.27;;;;;;;;;;5030078;28;20061;-92
2024/03/22 14:15:48;;;;;;;2.35;1.40;;;;;;;;;;5029859;28;20426;-90
2024/03/22 14:18:15;;;;;;;3.38;1.95;;;;;;;;;;5031751;28;20095;-93
2024/03/22 14:20:42;;;;;;;2.35;1.85;;;;;;;;;;5029105;28;20384;-90
2024/03/22 14:23:09;;;;;;;1.92;1.73;;;;;;;;;;5026984;28;20744;-91
2024/03/22 14:25:35;;;;;;;2.45;1.45;;;;;;;;;;5029534;28;20041;-88
2024/03/22 14:28:04;;;;;;;2.55;1.60;;;;;;;;;;5031678;28;20048;-88
2024/03/22 14:30:31;;;;;;;2.10;1.60;;;;;;;;;;5028483;28;20461;-89
2024/03/22 14:32:58;;;;;;;2.15;1.70;;;;;;;;;;5028708;28;20627;-91
2024/03/22 14:35:25;;;;;;;2.38;1.48;;;;;;;;;;5028082;28;20046;-91
2024/03/22 14:37:53;;;;;;;3.42;1.48;;;;;;;;;;5028789;28;20065;-91
2024/03/22 14:40:19;;;;;;;2.35;1.52;;;;;;;;;;5028850;28;20509;-91
2024/03/22 14:42:47;;;;;;;2.47;1.48;;;;;;;;;;5032715;28;20050;-93